createdAt,value
2019-03-19T00:11:35.985Z,51.7
2019-03-19T00:26:52.505Z,52.6
2019-03-19T00:42:04.754Z,52.9
2019-03-19T00:57:16.969Z,53
2019-03-19T01:12:18.896Z,52.6
2019-03-19T01:27:41.264Z,52.6
2019-03-19T01:42:53.390Z,52.2
2019-03-19T01:58:06.346Z,52.2
2019-03-19T02:13:18.758Z,52.6
2019-03-19T02:28:27.885Z,53
2019-03-19T02:43:41.709Z,53.4
2019-03-19T02:58:53.740Z,53.9
2019-03-19T03:14:05.857Z,54.1
2019-03-19T03:29:10.263Z,55
2019-03-19T03:44:29.900Z,55.5
2019-03-19T03:59:41.872Z,55.2
2019-03-19T04:14:54.071Z,54.9
2019-03-19T04:30:05.990Z,54.8
2019-03-19T04:45:18.041Z,53.9
2019-03-19T05:00:30.016Z,54
2019-03-19T05:15:42.033Z,55.6
2019-03-19T05:30:53.863Z,56
2019-03-19T05:46:00.996Z,55.8
2019-03-19T06:01:17.503Z,56.4
2019-03-19T06:16:29.448Z,55
2019-03-19T06:31:41.623Z,55
2019-03-19T06:46:43.848Z,54.8
2019-03-19T07:02:05.675Z,53.8
2019-03-19T07:17:18.198Z,54.7
2019-03-19T07:32:30.287Z,55.7
2019-03-19T07:47:42.628Z,51.3
2019-03-19T08:02:54.845Z,46.9
2019-03-19T08:18:07.724Z,48.4
2019-03-19T08:33:20.353Z,52.4
2019-03-19T08:48:32.361Z,61.2
2019-03-19T09:03:39.252Z,63.9
2019-03-19T09:18:57.105Z,61
2019-03-19T09:34:09.750Z,56.9
2019-03-19T09:49:22.670Z,49.5
2019-03-19T10:04:25.861Z,46
2019-03-19T10:19:48.628Z,42.6
2019-03-19T10:35:01.812Z,40.5
2019-03-19T10:50:15.526Z,35
2019-03-19T11:05:28.617Z,30.7
2019-03-19T11:20:41.059Z,27.9
2019-03-19T11:35:56.456Z,27.6
2019-03-19T11:51:10.723Z,30
2019-03-19T12:06:23.719Z,28.8
2019-03-19T12:21:29.898Z,26
2019-03-19T12:36:51.946Z,28.4
2019-03-19T12:52:06.430Z,25.1
2019-03-19T13:07:20.824Z,27.4
2019-03-19T13:22:34.639Z,31.6
2019-03-19T13:37:47.076Z,32.1
2019-03-19T13:53:02.303Z,25.4
2019-03-19T14:08:18.266Z,26.8
2019-03-19T14:23:29.602Z,30
2019-03-19T14:38:47.372Z,35.3
2019-03-19T14:53:56.220Z,36.7
2019-03-19T15:09:09.460Z,37.3
2019-03-19T15:24:22.941Z,37.5
2019-03-19T15:39:35.733Z,37.1
2019-03-19T15:54:48.934Z,38.1
2019-03-19T16:10:02.017Z,38.7
2019-03-19T16:25:15.243Z,39.2
2019-03-19T16:40:28.056Z,39
2019-03-19T16:55:35.678Z,39.4
2019-03-19T17:10:54.045Z,39.8
2019-03-19T17:26:06.926Z,41.2
2019-03-19T17:41:20.012Z,42.5
2019-03-19T17:56:21.561Z,43.9
2019-03-19T18:11:45.611Z,45.1
2019-03-19T18:26:58.426Z,45
2019-03-19T18:42:11.198Z,46.3
2019-03-19T18:57:24.071Z,46
2019-03-19T19:12:34.293Z,47.2
2019-03-19T19:27:49.894Z,46.2
2019-03-19T19:43:02.818Z,47.1
2019-03-19T19:58:15.768Z,47.3
2019-03-19T20:13:20.450Z,47.8
2019-03-19T20:28:41.698Z,47.8
2019-03-19T20:43:54.381Z,45.8
2019-03-19T20:59:07.164Z,45.5
2019-03-19T21:14:19.927Z,44.4
2019-03-19T21:29:32.639Z,44.2
2019-03-19T21:44:45.333Z,45.5
2019-03-19T21:59:58.092Z,45.8
2019-03-19T22:15:10.772Z,45.2
2019-03-19T22:30:18.428Z,45.8
2019-03-19T22:45:36.046Z,46.4
2019-03-19T23:00:48.649Z,46.9
2019-03-19T23:16:01.231Z,47.1
2019-03-19T23:31:03.704Z,47.6
2019-03-19T23:46:26.215Z,48.1
